sensor_id;sensor_type;location;lat;lon;timestamp;P1;durP1;ratioP1;P2;durP2;ratioP2
79414;SDS011;68864;44.972;19.612;2024-01-30T00:00:38;25.83;;;11.85;;
79414;SDS011;68864;44.972;19.612;2024-01-30T00:03:05;24.13;;;11.80;;
79414;SDS011;68864;44.972;19.612;2024-01-30T00:05:31;23.20;;;10.80;;
79414;SDS011;68864;44.972;19.612;2024-01-30T00:08:00;29.35;;;11.95;;
79414;SDS011;68864;44.972;19.612;2024-01-30T00:10:27;25.65;;;11.10;;
79414;SDS011;68864;44.972;19.612;2024-01-30T00:12:53;24.13;;;9.85;;
79414;SDS011;68864;44.972;19.612;2024-01-30T00:15:20;22.27;;;10.63;;
79414;SDS011;68864;44.972;19.612;2024-01-30T00:17:48;22.67;;;10.05;;
79414;SDS011;68864;44.972;19.612;2024-01-30T00:20:17;23.33;;;11.30;;
79414;SDS011;68864;44.972;19.612;2024-01-30T00:22:44;21.35;;;10.05;;
79414;SDS011;68864;44.972;19.612;2024-01-30T00:25:12;20.65;;;10.23;;
79414;SDS011;68864;44.972;19.612;2024-01-30T00:27:39;24.60;;;12.43;;
79414;SDS011;68864;44.972;19.612;2024-01-30T00:30:06;22.42;;;11.30;;
79414;SDS011;68864;44.972;19.612;2024-01-30T00:32:34;23.30;;;11.38;;
79414;SDS011;68864;44.972;19.612;2024-01-30T00:35:01;25.42;;;10.88;;
79414;SDS011;68864;44.972;19.612;2024-01-30T00:37:28;22.83;;;11.68;;
79414;SDS011;68864;44.972;19.612;2024-01-30T00:39:56;28.50;;;13.50;;
79414;SDS011;68864;44.972;19.612;2024-01-30T00:42:24;25.92;;;12.43;;
79414;SDS011;68864;44.972;19.612;2024-01-30T00:44:51;24.67;;;12.18;;
79414;SDS011;68864;44.972;19.612;2024-01-30T00:47:18;23.15;;;11.77;;
79414;SDS011;68864;44.972;19.612;2024-01-30T00:49:45;25.90;;;13.10;;
79414;SDS011;68864;44.972;19.612;2024-01-30T00:52:12;24.77;;;11.32;;
79414;SDS011;68864;44.972;19.612;2024-01-30T00:54:39;38.95;;;11.73;;
79414;SDS011;68864;44.972;19.612;2024-01-30T00:57:05;23.67;;;11.88;;
79414;SDS011;68864;44.972;19.612;2024-01-30T00:59:34;26.23;;;13.63;;
79414;SDS011;68864;44.972;19.612;2024-01-30T01:02:01;26.60;;;11.73;;
79414;SDS011;68864;44.972;19.612;2024-01-30T01:04:28;24.60;;;12.73;;
79414;SDS011;68864;44.972;19.612;2024-01-30T01:06:54;21.15;;;11.30;;
79414;SDS011;68864;44.972;19.612;2024-01-30T01:09:21;21.65;;;11.45;;
79414;SDS011;68864;44.972;19.612;2024-01-30T01:11:48;29.48;;;12.32;;
79414;SDS011;68864;44.972;19.612;2024-01-30T01:14:15;26.38;;;12.07;;
79414;SDS011;68864;44.972;19.612;2024-01-30T01:16:44;25.67;;;12.38;;
79414;SDS011;68864;44.972;19.612;2024-01-30T01:19:11;25.60;;;12.20;;
79414;SDS011;68864;44.972;19.612;2024-01-30T01:21:37;25.10;;;13.40;;
79414;SDS011;68864;44.972;19.612;2024-01-30T01:24:04;27.42;;;12.32;;
79414;SDS011;68864;44.972;19.612;2024-01-30T01:26:31;22.40;;;11.25;;
79414;SDS011;68864;44.972;19.612;2024-01-30T01:28:59;26.08;;;12.20;;
79414;SDS011;68864;44.972;19.612;2024-01-30T01:31:25;26.20;;;12.07;;
79414;SDS011;68864;44.972;19.612;2024-01-30T01:33:56;21.00;;;10.63;;
79414;SDS011;68864;44.972;19.612;2024-01-30T01:36:23;20.15;;;11.65;;
79414;SDS011;68864;44.972;19.612;2024-01-30T01:38:50;25.35;;;12.05;;
79414;SDS011;68864;44.972;19.612;2024-01-30T01:41:16;21.70;;;10.25;;
79414;SDS011;68864;44.972;19.612;2024-01-30T01:43:43;21.08;;;9.93;;
79414;SDS011;68864;44.972;19.612;2024-01-30T01:46:10;23.48;;;9.60;;
79414;SDS011;68864;44.972;19.612;2024-01-30T01:48:37;18.65;;;10.38;;
79414;SDS011;68864;44.972;19.612;2024-01-30T01:51:06;16.58;;;8.90;;
79414;SDS011;68864;44.972;19.612;2024-01-30T01:53:34;19.50;;;9.60;;
79414;SDS011;68864;44.972;19.612;2024-01-30T01:56:00;20.52;;;8.70;;
79414;SDS011;68864;44.972;19.612;2024-01-30T01:58:28;18.95;;;9.40;;
79414;SDS011;68864;44.972;19.612;2024-01-30T02:00:56;21.13;;;8.55;;
79414;SDS011;68864;44.972;19.612;2024-01-30T02:03:23;19.08;;;8.80;;
79414;SDS011;68864;44.972;19.612;2024-01-30T02:05:50;18.55;;;8.27;;
79414;SDS011;68864;44.972;19.612;2024-01-30T02:08:18;21.65;;;8.20;;
79414;SDS011;68864;44.972;19.612;2024-01-30T02:10:45;20.30;;;8.48;;
79414;SDS011;68864;44.972;19.612;2024-01-30T02:13:12;21.77;;;9.38;;
79414;SDS011;68864;44.972;19.612;2024-01-30T02:15:39;18.92;;;9.27;;
79414;SDS011;68864;44.972;19.612;2024-01-30T02:18:06;20.52;;;9.32;;
79414;SDS011;68864;44.972;19.612;2024-01-30T02:20:34;19.95;;;8.38;;
79414;SDS011;68864;44.972;19.612;2024-01-30T02:23:03;24.98;;;9.32;;
79414;SDS011;68864;44.972;19.612;2024-01-30T02:25:31;23.65;;;9.48;;
79414;SDS011;68864;44.972;19.612;2024-01-30T02:27:59;22.83;;;10.48;;
79414;SDS011;68864;44.972;19.612;2024-01-30T02:30:26;20.05;;;8.52;;
79414;SDS011;68864;44.972;19.612;2024-01-30T02:32:53;18.65;;;8.50;;
79414;SDS011;68864;44.972;19.612;2024-01-30T02:35:20;20.20;;;8.02;;
79414;SDS011;68864;44.972;19.612;2024-01-30T02:37:46;17.65;;;7.97;;
79414;SDS011;68864;44.972;19.612;2024-01-30T02:40:18;20.42;;;8.30;;
79414;SDS011;68864;44.972;19.612;2024-01-30T02:42:45;17.52;;;7.20;;
79414;SDS011;68864;44.972;19.612;2024-01-30T02:45:12;15.25;;;7.95;;
79414;SDS011;68864;44.972;19.612;2024-01-30T02:50:07;16.23;;;8.43;;
79414;SDS011;68864;44.972;19.612;2024-01-30T02:55:01;18.83;;;7.28;;
79414;SDS011;68864;44.972;19.612;2024-01-30T02:57:30;13.40;;;6.35;;
79414;SDS011;68864;44.972;19.612;2024-01-30T02:59:57;17.20;;;8.13;;
79414;SDS011;68864;44.972;19.612;2024-01-30T03:02:24;17.70;;;8.52;;
79414;SDS011;68864;44.972;19.612;2024-01-30T03:04:51;19.50;;;9.45;;
79414;SDS011;68864;44.972;19.612;2024-01-30T03:07:18;22.77;;;10.88;;
79414;SDS011;68864;44.972;19.612;2024-01-30T03:09:45;19.27;;;9.98;;
79414;SDS011;68864;44.972;19.612;2024-01-30T03:12:13;20.58;;;9.57;;
79414;SDS011;68864;44.972;19.612;2024-01-30T03:14:41;24.88;;;11.32;;
79414;SDS011;68864;44.972;19.612;2024-01-30T03:17:08;20.40;;;9.55;;
79414;SDS011;68864;44.972;19.612;2024-01-30T03:19:35;34.83;;;12.40;;
79414;SDS011;68864;44.972;19.612;2024-01-30T03:22:02;21.55;;;9.77;;
79414;SDS011;68864;44.972;19.612;2024-01-30T03:24:29;21.42;;;10.85;;
79414;SDS011;68864;44.972;19.612;2024-01-30T03:26:56;22.85;;;9.88;;
79414;SDS011;68864;44.972;19.612;2024-01-30T03:29:23;22.25;;;10.68;;
79414;SDS011;68864;44.972;19.612;2024-01-30T03:31:51;28.88;;;12.52;;
79414;SDS011;68864;44.972;19.612;2024-01-30T03:34:18;26.58;;;11.85;;
79414;SDS011;68864;44.972;19.612;2024-01-30T03:36:45;23.17;;;11.35;;
79414;SDS011;68864;44.972;19.612;2024-01-30T03:39:12;29.95;;;12.63;;
79414;SDS011;68864;44.972;19.612;2024-01-30T03:41:41;28.90;;;14.07;;
79414;SDS011;68864;44.972;19.612;2024-01-30T03:44:09;26.92;;;12.82;;
79414;SDS011;68864;44.972;19.612;2024-01-30T03:46:36;25.75;;;13.18;;
79414;SDS011;68864;44.972;19.612;2024-01-30T03:49:05;27.50;;;13.43;;
79414;SDS011;68864;44.972;19.612;2024-01-30T03:51:31;28.77;;;13.50;;
79414;SDS011;68864;44.972;19.612;2024-01-30T03:53:58;29.10;;;14.00;;
79414;SDS011;68864;44.972;19.612;2024-01-30T03:56:25;33.13;;;15.43;;
79414;SDS011;68864;44.972;19.612;2024-01-30T03:58:52;34.72;;;14.95;;
79414;SDS011;68864;44.972;19.612;2024-01-30T04:01:19;33.22;;;16.15;;
79414;SDS011;68864;44.972;19.612;2024-01-30T04:03:46;31.75;;;16.05;;
79414;SDS011;68864;44.972;19.612;2024-01-30T04:06:14;37.80;;;16.88;;
79414;SDS011;68864;44.972;19.612;2024-01-30T04:08:41;35.13;;;16.48;;
79414;SDS011;68864;44.972;19.612;2024-01-30T04:11:08;37.55;;;16.70;;
79414;SDS011;68864;44.972;19.612;2024-01-30T04:13:35;38.30;;;18.02;;
79414;SDS011;68864;44.972;19.612;2024-01-30T04:16:02;39.03;;;20.27;;
79414;SDS011;68864;44.972;19.612;2024-01-30T04:18:29;42.17;;;19.92;;
79414;SDS011;68864;44.972;19.612;2024-01-30T04:20:57;40.78;;;20.17;;
79414;SDS011;68864;44.972;19.612;2024-01-30T04:23:25;43.45;;;21.67;;
79414;SDS011;68864;44.972;19.612;2024-01-30T04:25:52;42.08;;;19.77;;
79414;SDS011;68864;44.972;19.612;2024-01-30T04:28:19;45.10;;;20.48;;
79414;SDS011;68864;44.972;19.612;2024-01-30T04:30:46;40.67;;;21.00;;
79414;SDS011;68864;44.972;19.612;2024-01-30T04:33:13;42.38;;;21.10;;
79414;SDS011;68864;44.972;19.612;2024-01-30T04:35:39;43.38;;;20.83;;
79414;SDS011;68864;44.972;19.612;2024-01-30T04:38:06;42.05;;;20.63;;
79414;SDS011;68864;44.972;19.612;2024-01-30T04:40:35;42.58;;;20.95;;
79414;SDS011;68864;44.972;19.612;2024-01-30T04:43:01;41.80;;;19.38;;
79414;SDS011;68864;44.972;19.612;2024-01-30T04:45:28;41.55;;;21.10;;
79414;SDS011;68864;44.972;19.612;2024-01-30T04:47:55;39.67;;;20.35;;
79414;SDS011;68864;44.972;19.612;2024-01-30T04:50:22;38.00;;;20.30;;
79414;SDS011;68864;44.972;19.612;2024-01-30T04:52:49;36.90;;;19.35;;
79414;SDS011;68864;44.972;19.612;2024-01-30T04:55:16;33.00;;;18.13;;
79414;SDS011;68864;44.972;19.612;2024-01-30T04:57:44;34.35;;;18.45;;
79414;SDS011;68864;44.972;19.612;2024-01-30T05:00:12;33.50;;;17.50;;
79414;SDS011;68864;44.972;19.612;2024-01-30T05:02:39;36.03;;;18.40;;
79414;SDS011;68864;44.972;19.612;2024-01-30T05:05:06;35.65;;;17.60;;
79414;SDS011;68864;44.972;19.612;2024-01-30T05:07:33;30.40;;;16.98;;
79414;SDS011;68864;44.972;19.612;2024-01-30T05:10:00;33.63;;;17.02;;
79414;SDS011;68864;44.972;19.612;2024-01-30T05:12:27;33.10;;;18.85;;
79414;SDS011;68864;44.972;19.612;2024-01-30T05:14:55;33.45;;;18.55;;
79414;SDS011;68864;44.972;19.612;2024-01-30T05:17:22;45.63;;;21.13;;
79414;SDS011;68864;44.972;19.612;2024-01-30T05:19:49;58.80;;;25.25;;
79414;SDS011;68864;44.972;19.612;2024-01-30T05:22:16;63.80;;;27.67;;
79414;SDS011;68864;44.972;19.612;2024-01-30T05:24:43;70.35;;;29.45;;
79414;SDS011;68864;44.972;19.612;2024-01-30T05:27:10;72.22;;;28.33;;
79414;SDS011;68864;44.972;19.612;2024-01-30T05:29:38;71.38;;;31.23;;
79414;SDS011;68864;44.972;19.612;2024-01-30T05:32:07;76.10;;;31.58;;
79414;SDS011;68864;44.972;19.612;2024-01-30T05:34:34;66.22;;;29.70;;
79414;SDS011;68864;44.972;19.612;2024-01-30T05:37:02;59.70;;;29.75;;
79414;SDS011;68864;44.972;19.612;2024-01-30T05:39:29;55.65;;;27.98;;
79414;SDS011;68864;44.972;19.612;2024-01-30T05:41:58;52.85;;;26.50;;
79414;SDS011;68864;44.972;19.612;2024-01-30T05:44:25;50.15;;;24.90;;
79414;SDS011;68864;44.972;19.612;2024-01-30T05:46:51;49.42;;;22.95;;
79414;SDS011;68864;44.972;19.612;2024-01-30T05:49:20;47.90;;;25.23;;
79414;SDS011;68864;44.972;19.612;2024-01-30T05:51:47;56.63;;;26.25;;
79414;SDS011;68864;44.972;19.612;2024-01-30T05:54:13;63.08;;;29.15;;
79414;SDS011;68864;44.972;19.612;2024-01-30T05:56:40;57.38;;;27.38;;
79414;SDS011;68864;44.972;19.612;2024-01-30T05:59:07;57.97;;;27.05;;
79414;SDS011;68864;44.972;19.612;2024-01-30T06:01:34;55.22;;;25.60;;
79414;SDS011;68864;44.972;19.612;2024-01-30T06:04:01;52.15;;;23.48;;
79414;SDS011;68864;44.972;19.612;2024-01-30T06:06:29;53.88;;;25.17;;
79414;SDS011;68864;44.972;19.612;2024-01-30T06:08:56;50.10;;;24.38;;
79414;SDS011;68864;44.972;19.612;2024-01-30T06:11:23;46.08;;;23.92;;
79414;SDS011;68864;44.972;19.612;2024-01-30T06:13:50;58.58;;;26.45;;
79414;SDS011;68864;44.972;19.612;2024-01-30T06:16:17;56.10;;;22.75;;
79414;SDS011;68864;44.972;19.612;2024-01-30T06:18:46;53.53;;;21.42;;
79414;SDS011;68864;44.972;19.612;2024-01-30T06:21:13;53.63;;;22.92;;
79414;SDS011;68864;44.972;19.612;2024-01-30T06:23:41;71.57;;;23.40;;
79414;SDS011;68864;44.972;19.612;2024-01-30T06:26:08;54.85;;;21.92;;
79414;SDS011;68864;44.972;19.612;2024-01-30T06:28:35;80.30;;;24.40;;
79414;SDS011;68864;44.972;19.612;2024-01-30T06:31:02;72.05;;;24.75;;
79414;SDS011;68864;44.972;19.612;2024-01-30T06:33:29;70.63;;;26.80;;
79414;SDS011;68864;44.972;19.612;2024-01-30T06:35:56;60.03;;;25.58;;
79414;SDS011;68864;44.972;19.612;2024-01-30T06:38:23;63.78;;;24.75;;
79414;SDS011;68864;44.972;19.612;2024-01-30T06:40:51;73.60;;;27.48;;
79414;SDS011;68864;44.972;19.612;2024-01-30T06:43:18;89.35;;;26.67;;
79414;SDS011;68864;44.972;19.612;2024-01-30T06:45:45;80.10;;;23.05;;
79414;SDS011;68864;44.972;19.612;2024-01-30T06:48:12;53.50;;;23.77;;
79414;SDS011;68864;44.972;19.612;2024-01-30T06:50:39;75.13;;;25.83;;
79414;SDS011;68864;44.972;19.612;2024-01-30T06:53:06;58.95;;;23.65;;
79414;SDS011;68864;44.972;19.612;2024-01-30T06:55:32;72.32;;;26.38;;
79414;SDS011;68864;44.972;19.612;2024-01-30T06:58:01;67.22;;;25.65;;
79414;SDS011;68864;44.972;19.612;2024-01-30T07:00:28;68.35;;;25.15;;
79414;SDS011;68864;44.972;19.612;2024-01-30T07:02:55;74.20;;;30.40;;
79414;SDS011;68864;44.972;19.612;2024-01-30T07:05:21;90.75;;;28.58;;
79414;SDS011;68864;44.972;19.612;2024-01-30T07:07:48;79.07;;;28.42;;
79414;SDS011;68864;44.972;19.612;2024-01-30T07:10:16;72.80;;;28.63;;
79414;SDS011;68864;44.972;19.612;2024-01-30T07:12:42;59.10;;;26.38;;
79414;SDS011;68864;44.972;19.612;2024-01-30T07:15:11;58.10;;;25.35;;
79414;SDS011;68864;44.972;19.612;2024-01-30T07:17:41;61.47;;;27.02;;
79414;SDS011;68864;44.972;19.612;2024-01-30T07:20:08;80.30;;;27.58;;
79414;SDS011;68864;44.972;19.612;2024-01-30T07:22:36;66.53;;;28.33;;
79414;SDS011;68864;44.972;19.612;2024-01-30T07:25:03;70.85;;;26.67;;
79414;SDS011;68864;44.972;19.612;2024-01-30T07:27:30;67.38;;;27.35;;
79414;SDS011;68864;44.972;19.612;2024-01-30T07:29:57;60.70;;;27.17;;
79414;SDS011;68864;44.972;19.612;2024-01-30T07:32:26;95.25;;;28.65;;
79414;SDS011;68864;44.972;19.612;2024-01-30T07:34:53;81.47;;;30.67;;
79414;SDS011;68864;44.972;19.612;2024-01-30T07:37:19;66.28;;;29.02;;
79414;SDS011;68864;44.972;19.612;2024-01-30T07:39:46;73.35;;;32.13;;
79414;SDS011;68864;44.972;19.612;2024-01-30T07:42:13;86.18;;;30.83;;
79414;SDS011;68864;44.972;19.612;2024-01-30T07:44:40;74.30;;;31.90;;
79414;SDS011;68864;44.972;19.612;2024-01-30T07:47:07;71.45;;;29.42;;
79414;SDS011;68864;44.972;19.612;2024-01-30T07:49:35;73.07;;;32.75;;
79414;SDS011;68864;44.972;19.612;2024-01-30T07:52:03;79.57;;;32.83;;
79414;SDS011;68864;44.972;19.612;2024-01-30T07:54:31;80.45;;;32.20;;
79414;SDS011;68864;44.972;19.612;2024-01-30T07:57:00;70.78;;;31.48;;
79414;SDS011;68864;44.972;19.612;2024-01-30T07:59:27;85.90;;;34.05;;
79414;SDS011;68864;44.972;19.612;2024-01-30T08:01:54;77.93;;;32.55;;
79414;SDS011;68864;44.972;19.612;2024-01-30T08:04:21;82.40;;;33.85;;
79414;SDS011;68864;44.972;19.612;2024-01-30T08:06:49;107.40;;;32.55;;
79414;SDS011;68864;44.972;19.612;2024-01-30T08:09:16;67.57;;;29.75;;
79414;SDS011;68864;44.972;19.612;2024-01-30T08:11:43;65.35;;;29.48;;
79414;SDS011;68864;44.972;19.612;2024-01-30T08:14:10;74.45;;;34.15;;
79414;SDS011;68864;44.972;19.612;2024-01-30T08:16:38;77.35;;;32.78;;
79414;SDS011;68864;44.972;19.612;2024-01-30T08:19:05;64.18;;;31.30;;
79414;SDS011;68864;44.972;19.612;2024-01-30T08:21:32;69.78;;;32.53;;
79414;SDS011;68864;44.972;19.612;2024-01-30T08:24:03;78.97;;;34.00;;
79414;SDS011;68864;44.972;19.612;2024-01-30T08:28:57;72.80;;;36.65;;
79414;SDS011;68864;44.972;19.612;2024-01-30T08:31:24;64.47;;;33.03;;
79414;SDS011;68864;44.972;19.612;2024-01-30T08:33:51;65.15;;;33.13;;
79414;SDS011;68864;44.972;19.612;2024-01-30T08:36:19;63.88;;;30.95;;
79414;SDS011;68864;44.972;19.612;2024-01-30T08:38:46;61.63;;;31.70;;
79414;SDS011;68864;44.972;19.612;2024-01-30T08:41:14;57.92;;;28.67;;
79414;SDS011;68864;44.972;19.612;2024-01-30T08:43:41;64.97;;;31.88;;
79414;SDS011;68864;44.972;19.612;2024-01-30T08:46:09;61.90;;;29.30;;
79414;SDS011;68864;44.972;19.612;2024-01-30T08:48:36;59.30;;;31.55;;
79414;SDS011;68864;44.972;19.612;2024-01-30T08:51:04;57.17;;;27.70;;
79414;SDS011;68864;44.972;19.612;2024-01-30T08:53:33;57.95;;;29.80;;
79414;SDS011;68864;44.972;19.612;2024-01-30T09:00:55;63.25;;;29.27;;
79414;SDS011;68864;44.972;19.612;2024-01-30T09:03:22;71.63;;;34.03;;
79414;SDS011;68864;44.972;19.612;2024-01-30T09:05:49;63.00;;;31.90;;
79414;SDS011;68864;44.972;19.612;2024-01-30T09:08:16;65.55;;;33.65;;
79414;SDS011;68864;44.972;19.612;2024-01-30T09:10:43;66.95;;;32.30;;
79414;SDS011;68864;44.972;19.612;2024-01-30T09:13:10;66.47;;;33.25;;
79414;SDS011;68864;44.972;19.612;2024-01-30T09:15:39;56.15;;;30.55;;
79414;SDS011;68864;44.972;19.612;2024-01-30T09:18:07;53.42;;;29.90;;
79414;SDS011;68864;44.972;19.612;2024-01-30T09:20:33;60.38;;;31.98;;
79414;SDS011;68864;44.972;19.612;2024-01-30T09:23:00;56.22;;;31.35;;
79414;SDS011;68864;44.972;19.612;2024-01-30T09:25:27;54.38;;;31.48;;
79414;SDS011;68864;44.972;19.612;2024-01-30T09:27:54;57.38;;;32.70;;
79414;SDS011;68864;44.972;19.612;2024-01-30T09:30:21;52.33;;;29.75;;
79414;SDS011;68864;44.972;19.612;2024-01-30T09:32:49;61.22;;;31.27;;
79414;SDS011;68864;44.972;19.612;2024-01-30T09:35:16;50.35;;;32.13;;
79414;SDS011;68864;44.972;19.612;2024-01-30T09:37:43;56.45;;;34.05;;
79414;SDS011;68864;44.972;19.612;2024-01-30T09:40:10;53.05;;;34.55;;
79414;SDS011;68864;44.972;19.612;2024-01-30T09:45:04;49.20;;;30.80;;
79414;SDS011;68864;44.972;19.612;2024-01-30T09:47:32;44.33;;;29.33;;
79414;SDS011;68864;44.972;19.612;2024-01-30T09:50:03;37.75;;;25.33;;
79414;SDS011;68864;44.972;19.612;2024-01-30T09:52:31;39.33;;;27.17;;
79414;SDS011;68864;44.972;19.612;2024-01-30T09:57:26;34.17;;;24.30;;
79414;SDS011;68864;44.972;19.612;2024-01-30T09:59:53;32.83;;;22.55;;
79414;SDS011;68864;44.972;19.612;2024-01-30T10:02:20;33.67;;;22.77;;
79414;SDS011;68864;44.972;19.612;2024-01-30T10:04:47;35.60;;;22.15;;
79414;SDS011;68864;44.972;19.612;2024-01-30T10:07:16;34.80;;;22.60;;
79414;SDS011;68864;44.972;19.612;2024-01-30T10:09:43;36.05;;;23.17;;
79414;SDS011;68864;44.972;19.612;2024-01-30T10:12:10;34.70;;;22.98;;
79414;SDS011;68864;44.972;19.612;2024-01-30T10:17:04;39.38;;;23.80;;
79414;SDS011;68864;44.972;19.612;2024-01-30T10:19:31;37.28;;;24.80;;
79414;SDS011;68864;44.972;19.612;2024-01-30T10:21:59;40.67;;;24.45;;
79414;SDS011;68864;44.972;19.612;2024-01-30T10:24:28;36.83;;;23.70;;
79414;SDS011;68864;44.972;19.612;2024-01-30T10:26:55;39.05;;;23.25;;
79414;SDS011;68864;44.972;19.612;2024-01-30T10:29:22;44.47;;;24.23;;
79414;SDS011;68864;44.972;19.612;2024-01-30T10:31:57;42.10;;;23.33;;
79414;SDS011;68864;44.972;19.612;2024-01-30T10:34:24;43.22;;;24.35;;
79414;SDS011;68864;44.972;19.612;2024-01-30T10:36:54;45.88;;;26.73;;
79414;SDS011;68864;44.972;19.612;2024-01-30T10:39:28;45.92;;;25.67;;
79414;SDS011;68864;44.972;19.612;2024-01-30T10:41:56;49.15;;;27.67;;
79414;SDS011;68864;44.972;19.612;2024-01-30T10:44:30;44.00;;;21.88;;
79414;SDS011;68864;44.972;19.612;2024-01-30T10:47:05;35.85;;;20.25;;
79414;SDS011;68864;44.972;19.612;2024-01-30T10:49:37;39.65;;;22.08;;
79414;SDS011;68864;44.972;19.612;2024-01-30T10:52:08;45.88;;;23.35;;
79414;SDS011;68864;44.972;19.612;2024-01-30T10:54:39;37.40;;;21.60;;
79414;SDS011;68864;44.972;19.612;2024-01-30T10:57:12;37.30;;;20.08;;
79414;SDS011;68864;44.972;19.612;2024-01-30T10:59:39;37.05;;;21.27;;
79414;SDS011;68864;44.972;19.612;2024-01-30T11:02:08;44.05;;;24.05;;
79414;SDS011;68864;44.972;19.612;2024-01-30T11:04:36;45.70;;;24.10;;
79414;SDS011;68864;44.972;19.612;2024-01-30T11:07:13;35.78;;;19.95;;
79414;SDS011;68864;44.972;19.612;2024-01-30T11:09:47;41.42;;;21.58;;
79414;SDS011;68864;44.972;19.612;2024-01-30T11:12:15;39.95;;;20.45;;
79414;SDS011;68864;44.972;19.612;2024-01-30T11:14:42;37.95;;;19.25;;
79414;SDS011;68864;44.972;19.612;2024-01-30T11:17:09;37.10;;;18.13;;
79414;SDS011;68864;44.972;19.612;2024-01-30T11:19:37;40.13;;;19.73;;
79414;SDS011;68864;44.972;19.612;2024-01-30T11:22:06;34.45;;;19.73;;
79414;SDS011;68864;44.972;19.612;2024-01-30T11:24:38;40.25;;;20.05;;
79414;SDS011;68864;44.972;19.612;2024-01-30T11:27:09;32.85;;;16.17;;
79414;SDS011;68864;44.972;19.612;2024-01-30T11:29:36;36.00;;;18.92;;
79414;SDS011;68864;44.972;19.612;2024-01-30T11:32:03;29.02;;;14.93;;
79414;SDS011;68864;44.972;19.612;2024-01-30T11:34:32;31.75;;;16.50;;
79414;SDS011;68864;44.972;19.612;2024-01-30T11:37:02;32.72;;;16.77;;
79414;SDS011;68864;44.972;19.612;2024-01-30T11:39:35;31.05;;;17.25;;
79414;SDS011;68864;44.972;19.612;2024-01-30T11:42:03;35.60;;;17.13;;
79414;SDS011;68864;44.972;19.612;2024-01-30T11:44:32;38.90;;;18.35;;
79414;SDS011;68864;44.972;19.612;2024-01-30T11:46:59;29.00;;;15.23;;
79414;SDS011;68864;44.972;19.612;2024-01-30T11:49:28;39.80;;;16.73;;
79414;SDS011;68864;44.972;19.612;2024-01-30T11:51:55;34.85;;;16.20;;
79414;SDS011;68864;44.972;19.612;2024-01-30T11:54:22;30.35;;;13.48;;
79414;SDS011;68864;44.972;19.612;2024-01-30T11:56:49;27.55;;;13.00;;
79414;SDS011;68864;44.972;19.612;2024-01-30T11:59:16;25.42;;;11.13;;
79414;SDS011;68864;44.972;19.612;2024-01-30T12:01:44;22.23;;;10.35;;
79414;SDS011;68864;44.972;19.612;2024-01-30T12:04:11;22.15;;;10.50;;
79414;SDS011;68864;44.972;19.612;2024-01-30T12:06:38;16.15;;;8.05;;
79414;SDS011;68864;44.972;19.612;2024-01-30T12:09:06;15.30;;;7.40;;
79414;SDS011;68864;44.972;19.612;2024-01-30T12:11:42;10.85;;;4.53;;
79414;SDS011;68864;44.972;19.612;2024-01-30T12:14:10;11.00;;;4.13;;
79414;SDS011;68864;44.972;19.612;2024-01-30T12:16:38;9.95;;;5.70;;
79414;SDS011;68864;44.972;19.612;2024-01-30T12:19:06;7.82;;;3.13;;
79414;SDS011;68864;44.972;19.612;2024-01-30T12:21:33;8.70;;;3.53;;
79414;SDS011;68864;44.972;19.612;2024-01-30T12:24:01;13.85;;;5.07;;
79414;SDS011;68864;44.972;19.612;2024-01-30T12:26:28;14.15;;;6.05;;
79414;SDS011;68864;44.972;19.612;2024-01-30T12:28:55;10.75;;;4.80;;
79414;SDS011;68864;44.972;19.612;2024-01-30T12:31:26;10.20;;;3.92;;
79414;SDS011;68864;44.972;19.612;2024-01-30T12:33:53;10.75;;;3.92;;
79414;SDS011;68864;44.972;19.612;2024-01-30T12:36:22;13.00;;;5.63;;
79414;SDS011;68864;44.972;19.612;2024-01-30T12:38:49;16.67;;;6.70;;
79414;SDS011;68864;44.972;19.612;2024-01-30T12:41:16;9.50;;;3.65;;
79414;SDS011;68864;44.972;19.612;2024-01-30T12:43:43;9.38;;;4.32;;
79414;SDS011;68864;44.972;19.612;2024-01-30T12:46:12;16.98;;;7.93;;
79414;SDS011;68864;44.972;19.612;2024-01-30T12:48:39;21.60;;;7.18;;
79414;SDS011;68864;44.972;19.612;2024-01-30T12:51:06;13.57;;;5.80;;
79414;SDS011;68864;44.972;19.612;2024-01-30T12:53:34;13.48;;;5.57;;
79414;SDS011;68864;44.972;19.612;2024-01-30T12:56:01;11.57;;;5.43;;
79414;SDS011;68864;44.972;19.612;2024-01-30T12:58:29;10.48;;;5.15;;
79414;SDS011;68864;44.972;19.612;2024-01-30T13:00:55;13.68;;;3.72;;
79414;SDS011;68864;44.972;19.612;2024-01-30T13:03:22;14.95;;;5.25;;
79414;SDS011;68864;44.972;19.612;2024-01-30T13:05:49;8.75;;;4.35;;
79414;SDS011;68864;44.972;19.612;2024-01-30T13:08:16;15.50;;;6.20;;
79414;SDS011;68864;44.972;19.612;2024-01-30T13:10:44;16.70;;;5.90;;
79414;SDS011;68864;44.972;19.612;2024-01-30T13:13:11;9.10;;;2.83;;
79414;SDS011;68864;44.972;19.612;2024-01-30T13:15:38;7.60;;;3.00;;
79414;SDS011;68864;44.972;19.612;2024-01-30T13:18:05;8.68;;;2.97;;
79414;SDS011;68864;44.972;19.612;2024-01-30T13:25:26;10.75;;;3.10;;
79414;SDS011;68864;44.972;19.612;2024-01-30T13:27:54;8.80;;;2.97;;
79414;SDS011;68864;44.972;19.612;2024-01-30T13:30:21;8.60;;;3.05;;
79414;SDS011;68864;44.972;19.612;2024-01-30T13:32:48;6.65;;;2.40;;
79414;SDS011;68864;44.972;19.612;2024-01-30T13:35:15;7.25;;;2.40;;
79414;SDS011;68864;44.972;19.612;2024-01-30T13:37:41;6.43;;;2.45;;
79414;SDS011;68864;44.972;19.612;2024-01-30T13:40:09;8.13;;;2.42;;
79414;SDS011;68864;44.972;19.612;2024-01-30T13:42:36;7.78;;;2.80;;
79414;SDS011;68864;44.972;19.612;2024-01-30T13:45:05;7.05;;;2.17;;
79414;SDS011;68864;44.972;19.612;2024-01-30T13:47:34;7.47;;;2.17;;
79414;SDS011;68864;44.972;19.612;2024-01-30T13:50:01;10.07;;;3.15;;
79414;SDS011;68864;44.972;19.612;2024-01-30T13:52:29;11.73;;;3.10;;
79414;SDS011;68864;44.972;19.612;2024-01-30T13:54:55;6.82;;;1.80;;
79414;SDS011;68864;44.972;19.612;2024-01-30T13:57:22;6.13;;;2.22;;
79414;SDS011;68864;44.972;19.612;2024-01-30T13:59:49;21.45;;;6.00;;
79414;SDS011;68864;44.972;19.612;2024-01-30T14:02:17;11.90;;;3.35;;
79414;SDS011;68864;44.972;19.612;2024-01-30T14:04:44;10.88;;;3.78;;
79414;SDS011;68864;44.972;19.612;2024-01-30T14:07:11;12.30;;;3.35;;
79414;SDS011;68864;44.972;19.612;2024-01-30T14:09:38;13.63;;;4.32;;
79414;SDS011;68864;44.972;19.612;2024-01-30T14:12:05;9.35;;;2.72;;
79414;SDS011;68864;44.972;19.612;2024-01-30T14:14:33;7.93;;;2.92;;
79414;SDS011;68864;44.972;19.612;2024-01-30T14:17:00;8.88;;;1.95;;
79414;SDS011;68864;44.972;19.612;2024-01-30T14:19:28;9.73;;;3.08;;
79414;SDS011;68864;44.972;19.612;2024-01-30T14:21:55;7.28;;;2.22;;
79414;SDS011;68864;44.972;19.612;2024-01-30T14:24:22;9.00;;;2.83;;
79414;SDS011;68864;44.972;19.612;2024-01-30T14:26:49;7.22;;;2.10;;
79414;SDS011;68864;44.972;19.612;2024-01-30T14:29:16;6.70;;;2.15;;
79414;SDS011;68864;44.972;19.612;2024-01-30T14:31:42;8.38;;;3.05;;
79414;SDS011;68864;44.972;19.612;2024-01-30T14:34:09;12.50;;;3.95;;
79414;SDS011;68864;44.972;19.612;2024-01-30T14:36:39;10.88;;;3.30;;
79414;SDS011;68864;44.972;19.612;2024-01-30T14:39:06;12.43;;;3.47;;